sensor_id;sensor_type;location;lat;lon;timestamp;P1;durP1;ratioP1;P2;durP2;ratioP2
21833;SDS011;11079;51.092;3.458;2022-11-30T00:00:54;1.58;;;1.42;;
21833;SDS011;11079;51.092;3.458;2022-11-30T00:03:20;1.92;;;1.58;;
21833;SDS011;11079;51.092;3.458;2022-11-30T00:05:46;1.65;;;1.40;;
21833;SDS011;11079;51.092;3.458;2022-11-30T00:08:11;1.73;;;1.40;;
21833;SDS011;11079;51.092;3.458;2022-11-30T00:10:38;1.70;;;1.33;;
21833;SDS011;11079;51.092;3.458;2022-11-30T00:13:04;1.48;;;1.33;;
21833;SDS011;11079;51.092;3.458;2022-11-30T00:15:30;1.40;;;1.30;;
21833;SDS011;11079;51.092;3.458;2022-11-30T00:17:56;2.20;;;1.63;;
21833;SDS011;11079;51.092;3.458;2022-11-30T00:20:22;1.67;;;1.58;;
21833;SDS011;11079;51.092;3.458;2022-11-30T00:22:47;1.20;;;1.10;;
21833;SDS011;11079;51.092;3.458;2022-11-30T00:25:13;1.45;;;1.20;;
21833;SDS011;11079;51.092;3.458;2022-11-30T00:27:39;1.38;;;1.27;;
21833;SDS011;11079;51.092;3.458;2022-11-30T00:30:05;1.52;;;1.30;;
21833;SDS011;11079;51.092;3.458;2022-11-30T00:32:31;1.80;;;1.40;;
21833;SDS011;11079;51.092;3.458;2022-11-30T00:34:57;1.70;;;1.60;;
21833;SDS011;11079;51.092;3.458;2022-11-30T00:37:24;1.52;;;1.40;;
21833;SDS011;11079;51.092;3.458;2022-11-30T00:39:49;1.50;;;1.30;;
21833;SDS011;11079;51.092;3.458;2022-11-30T00:42:15;1.63;;;1.52;;
21833;SDS011;11079;51.092;3.458;2022-11-30T00:44:41;1.70;;;1.48;;
21833;SDS011;11079;51.092;3.458;2022-11-30T00:47:06;1.50;;;1.40;;
21833;SDS011;11079;51.092;3.458;2022-11-30T00:49:32;1.70;;;1.27;;
21833;SDS011;11079;51.092;3.458;2022-11-30T00:51:58;1.98;;;1.45;;
21833;SDS011;11079;51.092;3.458;2022-11-30T00:54:25;1.42;;;1.33;;
21833;SDS011;11079;51.092;3.458;2022-11-30T00:56:51;2.55;;;1.67;;
21833;SDS011;11079;51.092;3.458;2022-11-30T00:59:16;1.10;;;1.00;;
21833;SDS011;11079;51.092;3.458;2022-11-30T01:01:42;2.00;;;1.48;;
21833;SDS011;11079;51.092;3.458;2022-11-30T01:04:08;1.42;;;1.33;;
21833;SDS011;11079;51.092;3.458;2022-11-30T01:06:33;1.58;;;1.30;;
21833;SDS011;11079;51.092;3.458;2022-11-30T01:08:59;1.45;;;1.17;;
21833;SDS011;11079;51.092;3.458;2022-11-30T01:11:27;1.20;;;1.10;;
21833;SDS011;11079;51.092;3.458;2022-11-30T01:13:54;1.20;;;1.10;;
21833;SDS011;11079;51.092;3.458;2022-11-30T01:16:23;1.25;;;1.15;;
21833;SDS011;11079;51.092;3.458;2022-11-30T01:18:50;1.38;;;1.27;;
21833;SDS011;11079;51.092;3.458;2022-11-30T01:21:16;1.55;;;1.20;;
21833;SDS011;11079;51.092;3.458;2022-11-30T01:23:47;1.65;;;1.45;;
21833;SDS011;11079;51.092;3.458;2022-11-30T01:26:12;1.73;;;1.30;;
21833;SDS011;11079;51.092;3.458;2022-11-30T01:28:38;1.33;;;1.10;;
21833;SDS011;11079;51.092;3.458;2022-11-30T01:31:13;1.30;;;1.20;;
21833;SDS011;11079;51.092;3.458;2022-11-30T01:33:39;1.08;;;0.95;;
21833;SDS011;11079;51.092;3.458;2022-11-30T01:36:11;1.30;;;1.20;;
21833;SDS011;11079;51.092;3.458;2022-11-30T01:38:39;1.23;;;1.13;;
21833;SDS011;11079;51.092;3.458;2022-11-30T01:41:06;1.38;;;1.20;;
21833;SDS011;11079;51.092;3.458;2022-11-30T01:46:05;1.40;;;1.20;;
21833;SDS011;11079;51.092;3.458;2022-11-30T01:48:46;1.58;;;1.33;;
21833;SDS011;11079;51.092;3.458;2022-11-30T01:51:17;1.98;;;1.50;;
21833;SDS011;11079;51.092;3.458;2022-11-30T01:53:43;1.92;;;1.60;;
21833;SDS011;11079;51.092;3.458;2022-11-30T01:56:09;1.40;;;1.30;;
21833;SDS011;11079;51.092;3.458;2022-11-30T01:58:35;1.20;;;1.10;;
21833;SDS011;11079;51.092;3.458;2022-11-30T02:01:00;1.73;;;1.55;;
21833;SDS011;11079;51.092;3.458;2022-11-30T02:03:30;1.48;;;1.10;;
21833;SDS011;11079;51.092;3.458;2022-11-30T02:06:00;1.30;;;1.17;;
21833;SDS011;11079;51.092;3.458;2022-11-30T02:08:25;1.23;;;1.10;;
21833;SDS011;11079;51.092;3.458;2022-11-30T02:10:56;1.13;;;1.02;;
21833;SDS011;11079;51.092;3.458;2022-11-30T02:22:03;1.20;;;1.10;;
21833;SDS011;11079;51.092;3.458;2022-11-30T02:30:14;1.50;;;1.20;;
21833;SDS011;11079;51.092;3.458;2022-11-30T02:32:47;1.60;;;1.25;;
21833;SDS011;11079;51.092;3.458;2022-11-30T02:35:20;1.05;;;1.05;;
21833;SDS011;11079;51.092;3.458;2022-11-30T02:37:49;1.23;;;1.10;;
21833;SDS011;11079;51.092;3.458;2022-11-30T02:40:17;1.30;;;1.20;;
21833;SDS011;11079;51.092;3.458;2022-11-30T02:42:43;1.20;;;1.10;;
21833;SDS011;11079;51.092;3.458;2022-11-30T02:45:09;1.20;;;1.10;;
21833;SDS011;11079;51.092;3.458;2022-11-30T02:47:44;1.50;;;1.10;;
21833;SDS011;11079;51.092;3.458;2022-11-30T02:50:14;1.10;;;1.00;;
21833;SDS011;11079;51.092;3.458;2022-11-30T02:52:48;1.08;;;0.95;;
21833;SDS011;11079;51.092;3.458;2022-11-30T02:55:16;1.40;;;1.30;;
21833;SDS011;11079;51.092;3.458;2022-11-30T02:57:43;1.33;;;0.98;;
21833;SDS011;11079;51.092;3.458;2022-11-30T03:00:09;1.20;;;1.10;;
21833;SDS011;11079;51.092;3.458;2022-11-30T03:02:35;1.30;;;1.00;;
21833;SDS011;11079;51.092;3.458;2022-11-30T03:05:02;1.20;;;1.02;;
21833;SDS011;11079;51.092;3.458;2022-11-30T03:07:28;1.70;;;1.33;;
21833;SDS011;11079;51.092;3.458;2022-11-30T03:09:53;1.50;;;1.20;;
21833;SDS011;11079;51.092;3.458;2022-11-30T03:12:19;1.23;;;1.13;;
21833;SDS011;11079;51.092;3.458;2022-11-30T03:14:45;1.33;;;1.15;;
21833;SDS011;11079;51.092;3.458;2022-11-30T03:17:10;1.15;;;1.05;;
21833;SDS011;11079;51.092;3.458;2022-11-30T03:19:36;1.10;;;1.00;;
21833;SDS011;11079;51.092;3.458;2022-11-30T03:22:01;1.42;;;1.00;;
21833;SDS011;11079;51.092;3.458;2022-11-30T03:24:27;1.02;;;0.93;;
21833;SDS011;11079;51.092;3.458;2022-11-30T03:26:53;1.85;;;1.30;;
21833;SDS011;11079;51.092;3.458;2022-11-30T03:29:18;1.20;;;1.10;;
21833;SDS011;11079;51.092;3.458;2022-11-30T03:31:44;1.35;;;1.13;;
21833;SDS011;11079;51.092;3.458;2022-11-30T03:34:09;0.93;;;0.90;;
21833;SDS011;11079;51.092;3.458;2022-11-30T03:36:35;1.35;;;0.95;;
21833;SDS011;11079;51.092;3.458;2022-11-30T03:39:01;1.98;;;1.08;;
21833;SDS011;11079;51.092;3.458;2022-11-30T03:41:27;1.17;;;1.08;;
21833;SDS011;11079;51.092;3.458;2022-11-30T03:43:53;1.90;;;1.02;;
21833;SDS011;11079;51.092;3.458;2022-11-30T03:46:19;1.17;;;1.08;;
21833;SDS011;11079;51.092;3.458;2022-11-30T03:48:45;1.25;;;1.15;;
21833;SDS011;11079;51.092;3.458;2022-11-30T03:51:11;1.38;;;1.02;;
21833;SDS011;11079;51.092;3.458;2022-11-30T03:53:37;1.17;;;1.08;;
21833;SDS011;11079;51.092;3.458;2022-11-30T03:56:04;0.95;;;0.93;;
21833;SDS011;11079;51.092;3.458;2022-11-30T03:58:32;1.40;;;1.10;;
21833;SDS011;11079;51.092;3.458;2022-11-30T04:03:34;1.10;;;1.00;;
21833;SDS011;11079;51.092;3.458;2022-11-30T04:06:01;1.23;;;1.10;;
21833;SDS011;11079;51.092;3.458;2022-11-30T04:08:27;1.45;;;1.10;;
21833;SDS011;11079;51.092;3.458;2022-11-30T04:10:53;1.90;;;1.35;;
21833;SDS011;11079;51.092;3.458;2022-11-30T04:13:20;1.20;;;1.10;;
21833;SDS011;11079;51.092;3.458;2022-11-30T04:15:47;0.85;;;0.85;;
21833;SDS011;11079;51.092;3.458;2022-11-30T04:18:14;1.58;;;1.45;;
21833;SDS011;11079;51.092;3.458;2022-11-30T04:20:40;1.75;;;1.30;;
21833;SDS011;11079;51.092;3.458;2022-11-30T04:23:06;1.30;;;1.20;;
21833;SDS011;11079;51.092;3.458;2022-11-30T04:25:32;1.23;;;0.90;;
21833;SDS011;11079;51.092;3.458;2022-11-30T04:27:58;1.30;;;1.20;;
21833;SDS011;11079;51.092;3.458;2022-11-30T04:30:23;1.52;;;1.20;;
21833;SDS011;11079;51.092;3.458;2022-11-30T04:32:49;0.90;;;0.88;;
21833;SDS011;11079;51.092;3.458;2022-11-30T04:35:15;1.42;;;1.02;;
21833;SDS011;11079;51.092;3.458;2022-11-30T04:37:40;1.35;;;0.90;;
21833;SDS011;11079;51.092;3.458;2022-11-30T04:40:06;1.85;;;1.13;;
21833;SDS011;11079;51.092;3.458;2022-11-30T04:42:32;1.17;;;1.08;;
21833;SDS011;11079;51.092;3.458;2022-11-30T04:44:58;1.50;;;1.38;;
21833;SDS011;11079;51.092;3.458;2022-11-30T04:47:23;1.30;;;1.20;;
21833;SDS011;11079;51.092;3.458;2022-11-30T04:49:50;1.00;;;0.90;;
21833;SDS011;11079;51.092;3.458;2022-11-30T04:52:16;1.40;;;1.30;;
21833;SDS011;11079;51.092;3.458;2022-11-30T04:54:41;1.00;;;0.90;;
21833;SDS011;11079;51.092;3.458;2022-11-30T04:57:07;1.40;;;1.30;;
21833;SDS011;11079;51.092;3.458;2022-11-30T04:59:32;1.10;;;1.00;;
21833;SDS011;11079;51.092;3.458;2022-11-30T05:01:58;1.10;;;1.00;;
21833;SDS011;11079;51.092;3.458;2022-11-30T05:04:24;1.00;;;0.90;;
21833;SDS011;11079;51.092;3.458;2022-11-30T05:06:49;1.10;;;1.00;;
21833;SDS011;11079;51.092;3.458;2022-11-30T05:09:15;1.30;;;1.20;;
21833;SDS011;11079;51.092;3.458;2022-11-30T05:11:40;1.10;;;1.00;;
21833;SDS011;11079;51.092;3.458;2022-11-30T05:14:06;1.27;;;1.10;;
21833;SDS011;11079;51.092;3.458;2022-11-30T05:16:32;1.08;;;0.98;;
21833;SDS011;11079;51.092;3.458;2022-11-30T05:18:57;1.50;;;0.95;;
21833;SDS011;11079;51.092;3.458;2022-11-30T05:21:23;1.58;;;1.13;;
21833;SDS011;11079;51.092;3.458;2022-11-30T05:23:48;1.20;;;1.10;;
21833;SDS011;11079;51.092;3.458;2022-11-30T05:26:15;1.00;;;0.90;;
21833;SDS011;11079;51.092;3.458;2022-11-30T05:28:41;1.30;;;1.20;;
21833;SDS011;11079;51.092;3.458;2022-11-30T05:31:06;1.00;;;0.90;;
21833;SDS011;11079;51.092;3.458;2022-11-30T05:33:32;1.45;;;1.08;;
21833;SDS011;11079;51.092;3.458;2022-11-30T05:35:58;1.13;;;1.02;;
21833;SDS011;11079;51.092;3.458;2022-11-30T05:38:23;1.77;;;1.20;;
21833;SDS011;11079;51.092;3.458;2022-11-30T05:40:49;1.45;;;1.17;;
21833;SDS011;11079;51.092;3.458;2022-11-30T05:43:15;1.10;;;1.00;;
21833;SDS011;11079;51.092;3.458;2022-11-30T05:45:41;1.20;;;1.05;;
21833;SDS011;11079;51.092;3.458;2022-11-30T05:48:06;1.30;;;1.20;;
21833;SDS011;11079;51.092;3.458;2022-11-30T05:50:32;1.30;;;1.20;;
21833;SDS011;11079;51.092;3.458;2022-11-30T05:52:57;1.52;;;0.98;;
21833;SDS011;11079;51.092;3.458;2022-11-30T05:55:25;1.52;;;1.05;;
21833;SDS011;11079;51.092;3.458;2022-11-30T05:57:52;1.00;;;0.90;;
21833;SDS011;11079;51.092;3.458;2022-11-30T06:00:19;1.55;;;0.98;;
21833;SDS011;11079;51.092;3.458;2022-11-30T06:02:45;1.05;;;0.95;;
21833;SDS011;11079;51.092;3.458;2022-11-30T06:05:11;0.95;;;0.88;;
21833;SDS011;11079;51.092;3.458;2022-11-30T06:07:38;0.63;;;0.63;;
21833;SDS011;11079;51.092;3.458;2022-11-30T06:10:04;1.38;;;1.20;;
21833;SDS011;11079;51.092;3.458;2022-11-30T06:12:30;1.35;;;1.00;;
21833;SDS011;11079;51.092;3.458;2022-11-30T06:14:56;1.10;;;1.00;;
21833;SDS011;11079;51.092;3.458;2022-11-30T06:17:22;1.15;;;1.05;;
21833;SDS011;11079;51.092;3.458;2022-11-30T06:19:47;1.27;;;1.05;;
21833;SDS011;11079;51.092;3.458;2022-11-30T06:22:13;1.10;;;1.00;;
21833;SDS011;11079;51.092;3.458;2022-11-30T06:24:38;0.98;;;0.93;;
21833;SDS011;11079;51.092;3.458;2022-11-30T06:27:04;1.45;;;1.20;;
21833;SDS011;11079;51.092;3.458;2022-11-30T06:29:30;1.42;;;1.00;;
21833;SDS011;11079;51.092;3.458;2022-11-30T06:31:57;1.17;;;1.00;;
21833;SDS011;11079;51.092;3.458;2022-11-30T06:34:22;0.95;;;0.93;;
21833;SDS011;11079;51.092;3.458;2022-11-30T06:36:48;1.13;;;1.00;;
21833;SDS011;11079;51.092;3.458;2022-11-30T06:39:14;1.20;;;1.10;;
21833;SDS011;11079;51.092;3.458;2022-11-30T06:41:39;1.20;;;1.10;;
21833;SDS011;11079;51.092;3.458;2022-11-30T06:44:08;1.40;;;1.17;;
21833;SDS011;11079;51.092;3.458;2022-11-30T06:46:35;0.90;;;0.80;;
21833;SDS011;11079;51.092;3.458;2022-11-30T06:49:01;0.80;;;0.80;;
21833;SDS011;11079;51.092;3.458;2022-11-30T06:51:27;1.55;;;1.30;;
21833;SDS011;11079;51.092;3.458;2022-11-30T06:53:52;1.10;;;1.00;;
21833;SDS011;11079;51.092;3.458;2022-11-30T06:56:18;1.02;;;0.93;;
21833;SDS011;11079;51.092;3.458;2022-11-30T06:58:44;1.10;;;1.00;;
21833;SDS011;11079;51.092;3.458;2022-11-30T07:01:11;2.28;;;1.77;;
21833;SDS011;11079;51.092;3.458;2022-11-30T07:03:39;1.10;;;1.00;;
21833;SDS011;11079;51.092;3.458;2022-11-30T07:06:09;1.25;;;1.10;;
21833;SDS011;11079;51.092;3.458;2022-11-30T07:08:36;1.05;;;0.90;;
21833;SDS011;11079;51.092;3.458;2022-11-30T07:11:02;1.13;;;0.93;;
21833;SDS011;11079;51.092;3.458;2022-11-30T07:13:29;1.63;;;1.20;;
21833;SDS011;11079;51.092;3.458;2022-11-30T07:15:55;1.08;;;0.95;;
21833;SDS011;11079;51.092;3.458;2022-11-30T07:18:20;1.48;;;1.02;;
21833;SDS011;11079;51.092;3.458;2022-11-30T07:20:46;1.23;;;0.93;;
21833;SDS011;11079;51.092;3.458;2022-11-30T07:23:12;1.67;;;1.17;;
21833;SDS011;11079;51.092;3.458;2022-11-30T07:26:00;1.30;;;1.10;;
21833;SDS011;11079;51.092;3.458;2022-11-30T07:28:41;1.33;;;1.10;;
21833;SDS011;11079;51.092;3.458;2022-11-30T07:31:14;1.08;;;0.88;;
21833;SDS011;11079;51.092;3.458;2022-11-30T07:33:43;0.90;;;0.90;;
21833;SDS011;11079;51.092;3.458;2022-11-30T07:36:09;1.20;;;1.10;;
21833;SDS011;11079;51.092;3.458;2022-11-30T07:38:35;1.15;;;1.00;;
21833;SDS011;11079;51.092;3.458;2022-11-30T07:41:01;4.70;;;2.75;;
21833;SDS011;11079;51.092;3.458;2022-11-30T07:43:27;10.73;;;7.05;;
21833;SDS011;11079;51.092;3.458;2022-11-30T07:45:53;11.98;;;7.13;;
21833;SDS011;11079;51.092;3.458;2022-11-30T07:48:19;15.25;;;8.60;;
21833;SDS011;11079;51.092;3.458;2022-11-30T07:50:46;21.90;;;13.15;;
21833;SDS011;11079;51.092;3.458;2022-11-30T07:53:14;25.20;;;14.23;;
21833;SDS011;11079;51.092;3.458;2022-11-30T07:55:40;23.45;;;13.60;;
21833;SDS011;11079;51.092;3.458;2022-11-30T07:58:06;23.52;;;13.38;;
21833;SDS011;11079;51.092;3.458;2022-11-30T08:00:33;30.45;;;15.85;;
21833;SDS011;11079;51.092;3.458;2022-11-30T08:03:00;26.70;;;16.15;;
21833;SDS011;11079;51.092;3.458;2022-11-30T08:05:26;29.92;;;16.45;;
21833;SDS011;11079;51.092;3.458;2022-11-30T08:07:52;28.42;;;16.75;;
21833;SDS011;11079;51.092;3.458;2022-11-30T08:10:18;28.58;;;16.90;;
21833;SDS011;11079;51.092;3.458;2022-11-30T08:12:45;25.38;;;15.13;;
21833;SDS011;11079;51.092;3.458;2022-11-30T08:15:11;26.52;;;15.90;;
21833;SDS011;11079;51.092;3.458;2022-11-30T08:17:37;30.95;;;17.35;;
21833;SDS011;11079;51.092;3.458;2022-11-30T08:20:03;28.10;;;16.67;;
21833;SDS011;11079;51.092;3.458;2022-11-30T08:22:31;28.10;;;16.73;;
21833;SDS011;11079;51.092;3.458;2022-11-30T08:24:56;30.88;;;18.05;;
21833;SDS011;11079;51.092;3.458;2022-11-30T08:27:22;29.27;;;17.30;;
21833;SDS011;11079;51.092;3.458;2022-11-30T08:29:48;30.42;;;17.13;;
21833;SDS011;11079;51.092;3.458;2022-11-30T08:32:13;25.13;;;16.20;;
21833;SDS011;11079;51.092;3.458;2022-11-30T08:34:39;27.40;;;16.25;;
21833;SDS011;11079;51.092;3.458;2022-11-30T08:37:05;26.35;;;15.68;;
21833;SDS011;11079;51.092;3.458;2022-11-30T08:39:30;25.77;;;15.60;;
21833;SDS011;11079;51.092;3.458;2022-11-30T08:41:58;26.83;;;15.73;;
21833;SDS011;11079;51.092;3.458;2022-11-30T08:44:25;24.52;;;15.45;;
21833;SDS011;11079;51.092;3.458;2022-11-30T08:46:51;24.77;;;13.70;;
21833;SDS011;11079;51.092;3.458;2022-11-30T08:49:17;22.55;;;14.30;;
21833;SDS011;11079;51.092;3.458;2022-11-30T08:51:43;25.05;;;15.07;;
21833;SDS011;11079;51.092;3.458;2022-11-30T08:54:08;26.00;;;14.98;;
21833;SDS011;11079;51.092;3.458;2022-11-30T08:56:34;23.17;;;14.20;;
21833;SDS011;11079;51.092;3.458;2022-11-30T08:58:59;22.67;;;14.07;;
21833;SDS011;11079;51.092;3.458;2022-11-30T09:01:25;21.58;;;13.35;;
21833;SDS011;11079;51.092;3.458;2022-11-30T09:03:52;19.02;;;12.15;;
21833;SDS011;11079;51.092;3.458;2022-11-30T09:06:19;21.48;;;12.23;;
21833;SDS011;11079;51.092;3.458;2022-11-30T09:08:47;22.10;;;13.55;;
21833;SDS011;11079;51.092;3.458;2022-11-30T09:11:15;19.33;;;12.18;;
21833;SDS011;11079;51.092;3.458;2022-11-30T09:13:42;19.73;;;12.70;;
21833;SDS011;11079;51.092;3.458;2022-11-30T09:16:09;22.48;;;13.18;;
21833;SDS011;11079;51.092;3.458;2022-11-30T09:18:35;21.00;;;12.73;;
21833;SDS011;11079;51.092;3.458;2022-11-30T09:21:03;20.17;;;12.13;;
21833;SDS011;11079;51.092;3.458;2022-11-30T09:23:33;19.25;;;12.30;;
21833;SDS011;11079;51.092;3.458;2022-11-30T09:26:00;19.27;;;12.00;;
21833;SDS011;11079;51.092;3.458;2022-11-30T09:28:30;17.40;;;11.93;;
21833;SDS011;11079;51.092;3.458;2022-11-30T09:31:29;20.08;;;13.40;;
21833;SDS011;11079;51.092;3.458;2022-11-30T09:33:48;19.45;;;11.73;;
21833;SDS011;11079;51.092;3.458;2022-11-30T09:36:16;17.25;;;11.07;;
21833;SDS011;11079;51.092;3.458;2022-11-30T09:38:43;18.75;;;11.73;;
21833;SDS011;11079;51.092;3.458;2022-11-30T09:41:35;20.92;;;12.30;;
21833;SDS011;11079;51.092;3.458;2022-11-30T09:49:49;17.45;;;11.10;;
21833;SDS011;11079;51.092;3.458;2022-11-30T09:52:16;16.38;;;10.60;;
21833;SDS011;11079;51.092;3.458;2022-11-30T09:54:46;17.55;;;11.23;;
21833;SDS011;11079;51.092;3.458;2022-11-30T09:57:26;19.35;;;12.05;;
21833;SDS011;11079;51.092;3.458;2022-11-30T09:59:56;15.93;;;9.80;;
21833;SDS011;11079;51.092;3.458;2022-11-30T10:02:25;18.05;;;10.75;;
21833;SDS011;11079;51.092;3.458;2022-11-30T10:04:54;16.70;;;10.82;;
21833;SDS011;11079;51.092;3.458;2022-11-30T10:12:41;14.45;;;9.10;;
21833;SDS011;11079;51.092;3.458;2022-11-30T10:18:39;15.98;;;10.00;;
21833;SDS011;11079;51.092;3.458;2022-11-30T10:23:41;16.88;;;10.43;;
21833;SDS011;11079;51.092;3.458;2022-11-30T10:26:40;15.98;;;9.65;;
21833;SDS011;11079;51.092;3.458;2022-11-30T10:31:59;17.83;;;10.13;;
21833;SDS011;11079;51.092;3.458;2022-11-30T10:34:49;15.32;;;10.23;;
21833;SDS011;11079;51.092;3.458;2022-11-30T10:37:18;17.15;;;9.85;;
21833;SDS011;11079;51.092;3.458;2022-11-30T10:45:30;17.10;;;9.55;;
21833;SDS011;11079;51.092;3.458;2022-11-30T10:48:09;16.42;;;9.07;;
21833;SDS011;11079;51.092;3.458;2022-11-30T10:50:39;13.60;;;9.18;;
21833;SDS011;11079;51.092;3.458;2022-11-30T10:53:08;14.57;;;9.35;;
21833;SDS011;11079;51.092;3.458;2022-11-30T10:55:37;15.60;;;9.43;;
21833;SDS011;11079;51.092;3.458;2022-11-30T11:01:03;14.15;;;9.45;;
21833;SDS011;11079;51.092;3.458;2022-11-30T11:03:34;15.63;;;9.40;;
21833;SDS011;11079;51.092;3.458;2022-11-30T11:08:37;16.15;;;9.80;;
21833;SDS011;11079;51.092;3.458;2022-11-30T11:11:03;22.13;;;9.48;;
21833;SDS011;11079;51.092;3.458;2022-11-30T11:13:49;15.50;;;8.95;;
21833;SDS011;11079;51.092;3.458;2022-11-30T11:16:15;15.30;;;9.05;;
21833;SDS011;11079;51.092;3.458;2022-11-30T11:18:54;13.50;;;8.73;;
21833;SDS011;11079;51.092;3.458;2022-11-30T11:21:22;12.25;;;8.80;;
21833;SDS011;11079;51.092;3.458;2022-11-30T11:23:52;13.95;;;8.27;;
21833;SDS011;11079;51.092;3.458;2022-11-30T11:26:21;14.35;;;9.20;;
21833;SDS011;11079;51.092;3.458;2022-11-30T11:28:49;14.98;;;9.38;;
21833;SDS011;11079;51.092;3.458;2022-11-30T11:31:18;16.58;;;9.05;;
21833;SDS011;11079;51.092;3.458;2022-11-30T11:33:58;13.68;;;9.20;;
21833;SDS011;11079;51.092;3.458;2022-11-30T11:36:29;15.48;;;8.25;;
21833;SDS011;11079;51.092;3.458;2022-11-30T11:38:57;14.43;;;8.18;;
21833;SDS011;11079;51.092;3.458;2022-11-30T11:41:27;12.68;;;8.15;;
21833;SDS011;11079;51.092;3.458;2022-11-30T11:46:33;13.60;;;8.65;;
21833;SDS011;11079;51.092;3.458;2022-11-30T11:49:05;13.90;;;8.60;;
21833;SDS011;11079;51.092;3.458;2022-11-30T11:51:42;12.70;;;8.32;;
21833;SDS011;11079;51.092;3.458;2022-11-30T11:54:21;17.67;;;9.07;;
21833;SDS011;11079;51.092;3.458;2022-11-30T11:56:54;13.68;;;8.77;;
21833;SDS011;11079;51.092;3.458;2022-11-30T11:59:27;12.82;;;8.13;;
21833;SDS011;11079;51.092;3.458;2022-11-30T12:02:35;17.05;;;9.65;;
21833;SDS011;11079;51.092;3.458;2022-11-30T12:05:12;13.52;;;8.60;;
21833;SDS011;11079;51.092;3.458;2022-11-30T12:10:24;13.18;;;8.10;;
21833;SDS011;11079;51.092;3.458;2022-11-30T12:12:53;12.68;;;8.27;;
21833;SDS011;11079;51.092;3.458;2022-11-30T12:15:22;13.82;;;8.63;;
21833;SDS011;11079;51.092;3.458;2022-11-30T12:18:19;14.20;;;8.60;;
21833;SDS011;11079;51.092;3.458;2022-11-30T12:20:56;12.90;;;8.23;;
21833;SDS011;11079;51.092;3.458;2022-11-30T12:26:30;12.18;;;8.48;;
21833;SDS011;11079;51.092;3.458;2022-11-30T12:37:10;10.40;;;7.00;;
21833;SDS011;11079;51.092;3.458;2022-11-30T12:39:54;11.95;;;7.78;;
21833;SDS011;11079;51.092;3.458;2022-11-30T12:42:27;12.77;;;8.07;;
21833;SDS011;11079;51.092;3.458;2022-11-30T12:47:46;10.93;;;7.93;;
21833;SDS011;11079;51.092;3.458;2022-11-30T12:50:36;13.27;;;8.02;;
21833;SDS011;11079;51.092;3.458;2022-11-30T12:53:35;10.38;;;7.30;;
21833;SDS011;11079;51.092;3.458;2022-11-30T13:04:15;12.52;;;7.93;;
21833;SDS011;11079;51.092;3.458;2022-11-30T13:07:12;10.52;;;7.00;;
21833;SDS011;11079;51.092;3.458;2022-11-30T13:09:50;10.57;;;7.72;;
21833;SDS011;11079;51.092;3.458;2022-11-30T13:12:23;9.82;;;7.35;;
21833;SDS011;11079;51.092;3.458;2022-11-30T13:15:00;12.48;;;8.15;;
21833;SDS011;11079;51.092;3.458;2022-11-30T13:17:29;10.25;;;7.10;;
21833;SDS011;11079;51.092;3.458;2022-11-30T13:23:00;12.73;;;7.80;;
21833;SDS011;11079;51.092;3.458;2022-11-30T13:25:41;11.90;;;7.70;;
21833;SDS011;11079;51.092;3.458;2022-11-30T13:31:21;11.90;;;7.10;;
21833;SDS011;11079;51.092;3.458;2022-11-30T13:36:24;11.02;;;7.25;;
21833;SDS011;11079;51.092;3.458;2022-11-30T13:41:42;11.18;;;6.97;;
21833;SDS011;11079;51.092;3.458;2022-11-30T13:47:18;15.18;;;7.25;;
21833;SDS011;11079;51.092;3.458;2022-11-30T13:49:57;10.98;;;7.32;;
21833;SDS011;11079;51.092;3.458;2022-11-30T13:58:06;11.38;;;7.60;;
21833;SDS011;11079;51.092;3.458;2022-11-30T14:03:23;10.52;;;7.28;;
21833;SDS011;11079;51.092;3.458;2022-11-30T14:05:51;11.20;;;6.78;;
21833;SDS011;11079;51.092;3.458;2022-11-30T14:23:28;8.95;;;6.82;;
21833;SDS011;11079;51.092;3.458;2022-11-30T14:26:06;8.93;;;6.47;;
21833;SDS011;11079;51.092;3.458;2022-11-30T14:31:09;11.27;;;6.97;;
21833;SDS011;11079;51.092;3.458;2022-11-30T14:36:07;10.75;;;7.07;;
21833;SDS011;11079;51.092;3.458;2022-11-30T14:38:40;11.77;;;7.40;;
21833;SDS011;11079;51.092;3.458;2022-11-30T14:41:17;11.35;;;7.53;;
21833;SDS011;11079;51.092;3.458;2022-11-30T14:44:04;8.93;;;6.30;;
21833;SDS011;11079;51.092;3.458;2022-11-30T14:46:35;10.10;;;6.78;;
21833;SDS011;11079;51.092;3.458;2022-11-30T14:49:17;10.50;;;7.00;;
21833;SDS011;11079;51.092;3.458;2022-11-30T14:51:46;8.82;;;6.50;;
21833;SDS011;11079;51.092;3.458;2022-11-30T14:54:49;10.75;;;7.32;;
21833;SDS011;11079;51.092;3.458;2022-11-30T14:57:39;10.52;;;6.95;;
21833;SDS011;11079;51.092;3.458;2022-11-30T15:00:13;11.80;;;7.95;;
21833;SDS011;11079;51.092;3.458;2022-11-30T15:02:41;10.75;;;6.93;;
21833;SDS011;11079;51.092;3.458;2022-11-30T15:05:11;10.18;;;7.13;;
21833;SDS011;11079;51.092;3.458;2022-11-30T15:07:41;9.68;;;6.68;;
21833;SDS011;11079;51.092;3.458;2022-11-30T15:10:13;8.27;;;5.93;;
21833;SDS011;11079;51.092;3.458;2022-11-30T15:12:43;9.63;;;6.70;;
21833;SDS011;11079;51.092;3.458;2022-11-30T15:17:53;10.60;;;6.95;;
21833;SDS011;11079;51.092;3.458;2022-11-30T15:20:44;9.60;;;7.03;;
21833;SDS011;11079;51.092;3.458;2022-11-30T15:23:26;8.57;;;6.32;;
21833;SDS011;11079;51.092;3.458;2022-11-30T15:25:55;10.05;;;6.57;;
21833;SDS011;11079;51.092;3.458;2022-11-30T15:28:39;12.07;;;7.03;;
21833;SDS011;11079;51.092;3.458;2022-11-30T15:31:09;8.55;;;6.45;;
21833;SDS011;11079;51.092;3.458;2022-11-30T15:33:47;10.40;;;6.93;;
21833;SDS011;11079;51.092;3.458;2022-11-30T15:36:15;10.25;;;6.93;;
21833;SDS011;11079;51.092;3.458;2022-11-30T15:38:46;11.57;;;6.82;;
21833;SDS011;11079;51.092;3.458;2022-11-30T15:41:23;9.77;;;6.53;;
21833;SDS011;11079;51.092;3.458;2022-11-30T15:43:51;9.43;;;6.45;;
21833;SDS011;11079;51.092;3.458;2022-11-30T15:46:26;9.57;;;6.68;;
21833;SDS011;11079;51.092;3.458;2022-11-30T15:51:41;13.30;;;6.68;;
21833;SDS011;11079;51.092;3.458;2022-11-30T15:54:09;10.13;;;6.50;;
21833;SDS011;11079;51.092;3.458;2022-11-30T15:56:34;9.57;;;6.57;;
21833;SDS011;11079;51.092;3.458;2022-11-30T16:01:30;9.50;;;6.57;;
21833;SDS011;11079;51.092;3.458;2022-11-30T16:04:25;9.57;;;6.72;;
21833;SDS011;11079;51.092;3.458;2022-11-30T16:06:52;9.85;;;6.97;;
21833;SDS011;11079;51.092;3.458;2022-11-30T16:11:56;9.85;;;7.05;;
21833;SDS011;11079;51.092;3.458;2022-11-30T16:14:23;8.80;;;5.97;;
21833;SDS011;11079;51.092;3.458;2022-11-30T16:16:48;8.75;;;6.22;;
21833;SDS011;11079;51.092;3.458;2022-11-30T16:19:17;8.63;;;6.22;;
21833;SDS011;11079;51.092;3.458;2022-11-30T16:21:42;8.00;;;5.65;;
21833;SDS011;11079;51.092;3.458;2022-11-30T16:24:12;8.80;;;6.13;;
21833;SDS011;11079;51.092;3.458;2022-11-30T16:26:39;8.57;;;5.88;;
21833;SDS011;11079;51.092;3.458;2022-11-30T16:29:05;8.27;;;5.82;;
21833;SDS011;11079;51.092;3.458;2022-11-30T16:31:30;9.60;;;6.10;;
21833;SDS011;11079;51.092;3.458;2022-11-30T16:33:56;8.98;;;6.03;;
21833;SDS011;11079;51.092;3.458;2022-11-30T16:36:21;7.32;;;5.38;;
21833;SDS011;11079;51.092;3.458;2022-11-30T16:38:47;8.95;;;6.38;;
21833;SDS011;11079;51.092;3.458;2022-11-30T16:43:50;8.50;;;6.03;;
21833;SDS011;11079;51.092;3.458;2022-11-30T16:46:25;10.02;;;6.07;;
21833;SDS011;11079;51.092;3.458;2022-11-30T16:48:52;9.30;;;6.47;;
21833;SDS011;11079;51.092;3.458;2022-11-30T16:53:55;7.80;;;5.68;;
21833;SDS011;11079;51.092;3.458;2022-11-30T16:56:21;8.57;;;6.20;;
21833;SDS011;11079;51.092;3.458;2022-11-30T16:58:47;8.00;;;5.72;;
21833;SDS011;11079;51.092;3.458;2022-11-30T17:01:58;8.95;;;6.07;;
21833;SDS011;11079;51.092;3.458;2022-11-30T17:04:03;7.32;;;5.20;;
21833;SDS011;11079;51.092;3.458;2022-11-30T17:06:35;9.63;;;5.95;;
21833;SDS011;11079;51.092;3.458;2022-11-30T17:09:05;7.95;;;5.72;;